Terminal Aerodrome Forecast
Issued by NWS

Home | Current Version | Previous Version | Text Only | Print | Product List | Glossary Off
Versions: 1 2 3 4 5 6 7 8 9 10 11 12 13 14 15 16

000
FTUS43 KFGF 071100
TAFBJI
TAF
KBJI 071120Z 0712/0812 28005KT P6SM BKN100
     FM071600 28010KT P6SM BKN040
     FM071900 29012KT P6SM VCTS BKN050CB
     FM080300 29007KT P6SM SCT050=

USA.gov is the U.S. government's official web portal to all federal, state and local government web resources and services.